Time;durP1;ratioP1;P1;durP2;ratioP2;P2;SDS_P1;SDS_P2;PMS_P1;PMS_P2;Temp;Humidity;BMP_temperature;BMP_pressure;BME280_temperature;BME280_humidity;BME280_pressure;Samples;Min_cycle;Max_cycle;Signal;HPM_P1;HPM_P2
2023/04/19 00:00:23;;;;;;;7.15;6.43;;;;;;;10.72;100.00;101227.84;5008516;28;20045;-94
2023/04/19 00:02:59;;;;;;;8.70;6.70;;;;;;;10.43;100.00;101184.66;5021203;28;20033;-91
2023/04/19 00:05:32;;;;;;;;;;;;;;;10.74;100.00;101231.28;5011166;28;20042;-91
2023/04/19 00:08:06;;;;;;;7.70;6.30;;;;;;;10.74;100.00;101232.16;5034553;28;19917;-92
2023/04/19 00:10:48;;;;;;;8.20;6.72;;;;;;;10.70;100.00;101221.75;5024891;28;20068;-92
2023/04/19 00:13:15;;;;;;;8.57;6.93;;;;;;;10.72;100.00;101227.84;5004409;28;20423;-93
2023/04/19 00:15:43;;;;;;;9.27;6.85;;;;;;;10.69;100.00;101223.53;5015004;28;20056;-93
2023/04/19 00:18:10;;;;;;;7.55;6.57;;;;;;;10.61;100.00;101211.44;4997195;28;20049;-92
2023/04/19 00:20:41;;;;;;;9.67;7.50;;;;;;;10.64;100.00;101212.22;5009362;28;20073;-93
2023/04/19 00:23:16;;;;;;;9.15;6.90;;;;;;;10.71;100.00;101223.44;5006443;28;20121;-92
2023/04/19 00:25:57;;;;;;;7.40;6.57;;;;;;;10.44;100.00;101185.53;4995656;28;20054;-93
2023/04/19 00:28:33;;;;;;;8.30;7.13;;;;;;;10.62;100.00;101214.06;5016382;28;20049;-93
2023/04/19 00:31:02;;;;;;;8.70;6.70;;;;;;;10.38;100.00;101175.19;5004678;28;20073;-93
2023/04/19 00:33:32;;;;;;;8.48;7.20;;;;;;;10.64;100.00;101224.59;5017389;28;20061;-92
2023/04/19 00:36:00;;;;;;;9.93;7.53;;;;;;;10.64;100.00;101216.66;5018066;28;20125;-93
2023/04/19 00:38:31;;;;;;;9.15;7.65;;;;;;;10.11;100.00;101124.84;5036646;28;20522;-93
2023/04/19 00:40:59;;;;;;;10.68;7.82;;;;;;;10.35;100.00;101175.28;5019186;28;20470;-93
2023/04/19 00:43:32;;;;;;;9.63;7.50;;;;;;;10.31;100.00;101160.41;5005382;28;20057;-93
2023/04/19 00:46:01;;;;;;;10.70;8.10;;;;;;;10.57;100.00;101208.03;5037880;28;20059;-93
2023/04/19 00:48:35;;;;;;;10.63;8.32;;;;;;;10.54;100.00;101194.91;4985298;28;20068;-94
2023/04/19 00:51:17;;;;;;;11.35;8.68;;;;;;;10.47;100.00;101180.16;5010654;28;20038;-93
2023/04/19 00:53:53;;;;;;;9.95;8.40;;;;;;;10.53;100.00;101193.19;5028060;28;20045;-93
2023/04/19 00:56:31;;;;;;;11.00;9.07;;;;;;;10.42;100.00;101167.06;5031307;28;20060;-93
2023/04/19 00:59:01;;;;;;;11.50;9.50;;;;;;;10.41;100.00;101172.41;5017742;28;20049;-93
2023/04/19 01:01:40;;;;;;;11.50;9.52;;;;;;;10.60;100.00;101201.78;5017741;28;20049;-94
2023/04/19 01:04:11;;;;;;;11.07;8.90;;;;;;;10.54;100.00;101198.44;4985707;28;20059;-93
2023/04/19 01:06:45;;;;;;;13.15;9.82;;;;;;;10.42;100.00;101174.13;5008028;28;20034;-93
2023/04/19 01:09:29;;;;;;;13.90;10.13;;;;;;;10.39;100.00;101182.19;5018657;28;20046;-91
2023/04/19 01:12:18;;;;;;;13.95;10.27;;;;;;;10.11;100.00;101135.41;5015907;28;20125;-93
2023/04/19 01:15:09;;;;;;;12.20;9.88;;;;;;;10.23;100.00;101154.50;5013001;28;20046;-93
2023/04/19 01:17:55;;;;;;;14.52;10.25;;;;;;;10.39;100.00;101187.50;5011024;28;20056;-94
2023/04/19 01:20:38;;;;;;;13.88;10.52;;;;;;;10.43;100.00;101186.44;5012305;28;20056;-93
2023/04/19 01:23:10;;;;;;;14.38;10.23;;;;;;;10.10;100.00;101132.81;4999104;28;20038;-92
2023/04/19 01:26:02;;;;;;;12.90;10.02;;;;;;;9.96;100.00;101101.53;5023123;28;20050;-93
2023/04/19 01:28:46;;;;;;;13.93;10.25;;;;;;;10.45;100.00;101182.84;5028015;28;20046;-93
2023/04/19 01:31:27;;;;;;;13.65;10.43;;;;;;;10.17;100.00;101132.59;4984622;28;20103;-93
2023/04/19 01:34:02;;;;;;;13.43;10.63;;;;;;;10.23;100.00;101138.63;5030291;28;20475;-93
2023/04/19 01:36:37;;;;;;;14.02;10.38;;;;;;;10.47;100.00;101173.06;5008241;28;20057;-93
2023/04/19 01:39:09;;;;;;;15.00;10.85;;;;;;;10.35;100.00;101151.44;4998738;28;20041;-92
2023/04/19 01:41:47;;;;;;;16.05;11.57;;;;;;;10.48;100.00;101174.81;5034419;28;20049;-93
2023/04/19 01:44:16;;;;;;;14.05;10.48;;;;;;;10.45;100.00;101172.25;4991510;28;20044;-94
2023/04/19 01:46:43;;;;;;;15.70;11.80;;;;;;;10.43;100.00;101173.22;5008058;28;20048;-94
2023/04/19 01:49:16;;;;;;;14.20;11.15;;;;;;;10.41;100.00;101161.81;5015396;28;20069;-93
2023/04/19 01:51:55;;;;;;;15.60;11.70;;;;;;;10.40;100.00;101158.28;5002072;28;20077;-91
2023/04/19 01:54:41;;;;;;;14.18;11.10;;;;;;;10.42;100.00;101160.88;5000421;28;20137;-94
2023/04/19 01:57:11;;;;;;;16.60;11.52;;;;;;;10.40;100.00;101165.38;5007998;28;20076;-92
2023/04/19 02:00:00;;;;;;;17.38;12.00;;;;;;;10.39;100.00;101155.72;5009571;28;20053;-94
2023/04/19 02:02:58;;;;;;;16.50;12.35;;;;;;;10.37;100.00;101150.47;5033681;28;20041;-94
2023/04/19 02:05:25;;;;;;;19.35;13.18;;;;;;;10.39;100.00;101155.72;5014889;28;20042;-93
2023/04/19 02:07:56;;;;;;;19.25;12.73;;;;;;;10.33;100.00;101155.91;5042488;28;20036;-92
2023/04/19 02:10:51;;;;;;;18.10;12.27;;;;;;;10.29;100.00;101151.63;5029067;28;20058;-92
2023/04/19 02:13:42;;;;;;;16.75;11.82;;;;;;;10.29;100.00;101147.22;5033133;28;20048;-94
2023/04/19 02:16:14;;;;;;;17.33;12.70;;;;;;;10.27;100.00;101142.88;5022196;28;20118;-93
2023/04/19 02:18:42;;;;;;;15.65;11.27;;;;;;;10.22;100.00;101135.13;5020097;28;20037;-91
2023/04/19 02:21:09;;;;;;;17.13;11.63;;;;;;;10.16;100.00;101128.19;5028174;28;20052;-91
2023/04/19 02:23:37;;;;;;;18.02;12.82;;;;;;;10.22;100.00;101143.06;5028512;28;20102;-92
2023/04/19 02:26:05;;;;;;;16.63;12.02;;;;;;;10.17;100.00;101139.66;5001145;28;20043;-91
2023/04/19 02:28:37;;;;;;;18.42;12.70;;;;;;;10.04;100.00;101123.31;5018324;28;20033;-92
2023/04/19 02:31:12;;;;;;;17.75;12.40;;;;;;;10.11;100.00;101140.72;5017990;28;20038;-93
2023/04/19 02:33:48;;;;;;;15.48;11.80;;;;;;;10.05;100.00;101130.34;5016366;28;20030;-91
2023/04/19 02:36:15;;;;;;;16.48;12.07;;;;;;;9.93;100.00;101117.50;5008330;28;20043;-91
2023/04/19 02:38:48;;;;;;;16.08;12.20;;;;;;;10.01;100.00;101128.72;5006440;28;20041;-92
2023/04/19 02:41:31;;;;;;;17.48;11.88;;;;;;;9.75;100.00;101099.63;5020190;28;20045;-91
2023/04/19 02:44:04;;;;;;;16.15;11.95;;;;;;;9.94;100.00;101132.47;5029689;28;20054;-93
2023/04/19 02:46:34;;;;;;;19.50;13.55;;;;;;;9.83;100.00;101118.72;4999981;28;20106;-92
2023/04/19 02:49:08;;;;;;;17.63;13.15;;;;;;;9.94;100.00;101123.66;5006798;28;20061;-91
2023/04/19 02:51:35;;;;;;;16.13;12.50;;;;;;;9.60;100.00;101078.94;5027432;28;20053;-91
2023/04/19 02:54:20;;;;;;;19.27;12.95;;;;;;;9.74;100.00;101113.75;5027332;28;20094;-92
2023/04/19 02:57:02;;;;;;;19.13;13.43;;;;;;;9.46;100.00;101076.72;5012805;28;20106;-91
2023/04/19 02:59:34;;;;;;;18.67;13.18;;;;;;;9.66;100.00;101121.03;5022458;28;20042;-91
2023/04/19 03:02:08;;;;;;;20.83;13.90;;;;;;;9.66;100.00;101126.34;5008787;28;20044;-91
2023/04/19 03:04:38;;;;;;;18.55;13.50;;;;;;;9.58;100.00;101117.78;5004737;28;20038;-91
2023/04/19 03:07:08;;;;;;;16.97;12.80;;;;;;;9.58;100.00;101121.31;4987611;28;20050;-93
2023/04/19 03:09:35;;;;;;;17.63;13.20;;;;;;;9.40;100.00;101088.38;4969801;28;20049;-93
2023/04/19 03:12:34;;;;;;;18.92;13.57;;;;;;;9.61;100.00;101122.97;4997734;28;20064;-93
2023/04/19 03:15:08;;;;;;;20.15;14.27;;;;;;;9.61;100.00;101112.38;4986130;28;20042;-93
2023/04/19 03:17:40;;;;;;;22.70;14.98;;;;;;;9.64;100.00;101114.94;4979485;28;20068;-92
2023/04/19 03:20:10;;;;;;;19.50;14.13;;;;;;;9.57;100.00;101102.84;5009924;28;20038;-94
2023/04/19 03:22:38;;;;;;;20.42;14.88;;;;;;;9.69;100.00;101107.72;4988104;28;20097;-93
2023/04/19 03:25:11;;;;;;;19.10;13.32;;;;;;;9.72;100.00;101116.44;4993262;28;20052;-93
2023/04/19 03:27:46;;;;;;;20.52;13.90;;;;;;;9.59;100.00;101087.78;4987175;28;20046;-92
2023/04/19 03:30:20;;;;;;;22.40;14.55;;;;;;;9.72;100.00;101099.72;5007046;28;20485;-92
2023/04/19 03:33:01;;;;;;;20.42;13.95;;;;;;;9.68;100.00;101090.13;5012343;28;20125;-92
2023/04/19 03:35:39;;;;;;;19.38;14.25;;;;;;;9.75;100.00;101092.53;5012029;28;20049;-92
2023/04/19 03:38:23;;;;;;;21.25;14.35;;;;;;;9.86;100.00;101100.13;5020090;28;20099;-92
2023/04/19 03:41:05;;;;;;;19.40;13.85;;;;;;;9.84;100.00;101094.00;4997384;28;20056;-93
2023/04/19 03:43:34;;;;;;;19.45;14.40;;;;;;;9.84;100.00;101091.38;5020840;28;20069;-92
2023/04/19 03:46:05;;;;;;;22.88;14.98;;;;;;;9.84;100.00;101094.88;5029883;28;20042;-93
2023/04/19 03:48:37;;;;;;;20.25;14.68;;;;;;;9.85;100.00;101091.31;5016202;28;20045;-92
2023/04/19 03:51:15;;;;;;;19.25;14.10;;;;;;;9.87;100.00;101085.97;5022698;28;20133;-92
2023/04/19 03:53:43;;;;;;;20.23;14.48;;;;;;;9.92;100.00;101081.38;4987184;28;20133;-93
2023/04/19 03:56:23;;;;;;;18.10;13.80;;;;;;;9.94;100.00;101082.19;5000399;28;20069;-92
2023/04/19 03:58:56;;;;;;;17.20;13.88;;;;;;;9.93;100.00;101085.75;5013538;28;20049;-93
2023/04/19 04:01:40;;;;;;;20.40;14.63;;;;;;;9.95;100.00;101083.06;5034666;28;20038;-92
2023/04/19 04:04:14;;;;;;;21.45;14.23;;;;;;;9.95;100.00;101086.56;5038841;28;20041;-91
2023/04/19 04:06:50;;;;;;;19.90;14.82;;;;;;;9.93;100.00;101082.25;5025696;28;20034;-92
2023/04/19 04:09:25;;;;;;;21.48;14.90;;;;;;;9.96;100.00;101092.72;5001954;28;20045;-92
2023/04/19 04:11:55;;;;;;;22.25;15.15;;;;;;;9.98;100.00;101090.91;5037636;28;20127;-92
2023/04/19 04:14:34;;;;;;;22.02;14.93;;;;;;;9.97;100.00;101086.53;5018200;28;20048;-94
2023/04/19 04:17:03;;;;;;;18.52;14.57;;;;;;;9.99;100.00;101095.28;5009082;28;20226;-94
2023/04/19 04:19:40;;;;;;;21.00;15.48;;;;;;;9.98;100.00;101083.81;5024750;28;20088;-92
2023/04/19 04:22:27;;;;;;;20.70;15.23;;;;;;;9.99;100.00;101092.63;5027844;28;20041;-92
2023/04/19 04:25:01;;;;;;;19.33;14.63;;;;;;;10.00;100.00;101092.59;5024082;28;20041;-94
2023/04/19 04:27:28;;;;;;;21.45;15.15;;;;;;;9.70;100.00;101038.91;5031502;28;20046;-93
2023/04/19 04:30:00;;;;;;;21.88;15.25;;;;;;;9.49;100.00;101015.81;5011002;28;20596;-93
2023/04/19 04:32:34;;;;;;;20.02;15.35;;;;;;;9.98;100.00;101091.75;4955140;28;20096;-92
2023/04/19 04:35:21;;;;;;;21.48;15.27;;;;;;;9.99;100.00;101087.34;5011366;28;20145;-93
2023/04/19 04:37:52;;;;;;;21.73;15.50;;;;;;;9.93;100.00;101076.94;5013657;28;20049;-93
2023/04/19 04:40:20;;;;;;;19.48;14.65;;;;;;;10.04;100.00;101088.06;5009538;28;20043;-93
2023/04/19 04:43:03;;;;;;;18.70;13.75;;;;;;;10.02;100.00;101095.19;4987633;28;20061;-93
2023/04/19 04:45:43;;;;;;;20.13;14.18;;;;;;;10.02;100.00;101089.91;5010927;28;20491;-93
2023/04/19 04:48:36;;;;;;;21.45;15.20;;;;;;;9.87;100.00;101059.53;5016952;28;20150;-93
2023/04/19 04:51:04;;;;;;;20.58;14.15;;;;;;;9.86;100.00;101068.38;5021992;28;20038;-92
2023/04/19 04:53:33;;;;;;;21.83;15.87;;;;;;;9.80;100.00;101050.06;5009531;28;20053;-92
2023/04/19 04:56:24;;;;;;;20.65;15.45;;;;;;;10.07;100.00;101091.44;5017010;28;20040;-92
2023/04/19 04:58:52;;;;;;;19.38;15.05;;;;;;;10.11;100.00;101087.78;5012369;28;20209;-91
2023/04/19 05:01:22;;;;;;;21.98;15.90;;;;;;;10.01;100.00;101067.84;5015214;28;20117;-92
2023/04/19 05:03:56;;;;;;;21.98;15.48;;;;;;;10.12;100.00;101076.28;4991093;28;20046;-94
2023/04/19 05:06:27;;;;;;;20.50;14.38;;;;;;;10.20;100.00;101086.66;5002225;28;20450;-94
2023/04/19 05:08:55;;;;;;;21.60;16.23;;;;;;;10.11;100.00;101077.19;5003251;28;20050;-91
2023/04/19 05:11:55;;;;;;;20.55;15.23;;;;;;;10.21;100.00;101088.38;4993341;28;20050;-94
2023/04/19 05:14:49;;;;;;;19.23;14.77;;;;;;;10.22;100.00;101086.59;4983900;28;20399;-92
2023/04/19 05:17:27;;;;;;;19.92;15.32;;;;;;;10.18;100.00;101069.94;5015339;28;20174;-93
2023/04/19 05:19:57;;;;;;;19.27;14.93;;;;;;;9.95;100.00;101028.38;5005804;28;20046;-93
2023/04/19 05:22:26;;;;;;;21.08;15.68;;;;;;;10.27;100.00;101084.66;5016111;28;20042;-91
2023/04/19 05:24:54;;;;;;;23.90;15.65;;;;;;;10.04;100.00;101051.88;5027048;28;20072;-92
2023/04/19 05:27:30;;;;;;;20.77;15.20;;;;;;;10.30;100.00;101090.72;5023564;28;20054;-92
2023/04/19 05:30:55;;;;;;;20.23;14.68;;;;;;;10.32;100.00;101080.94;5075103;27;25066;-93
2023/04/19 05:36:40;;;;;;;20.02;14.55;;;;;;;10.35;100.00;101070.25;5074137;22;20065;-93
2023/04/19 05:39:25;;;;;;;21.52;14.52;;;;;;;10.46;100.00;101077.78;5006348;28;20680;-94
2023/04/19 05:41:57;;;;;;;19.05;14.30;;;;;;;10.31;100.00;101054.50;5100241;23;20055;-92
2023/04/19 05:44:27;;;;;;;19.10;14.00;;;;;;;10.00;100.00;100988.53;4991634;28;20042;-91
2023/04/19 05:46:55;;;;;;;19.95;14.27;;;;;;;10.00;100.00;100988.53;5005449;28;20038;-93
2023/04/19 05:49:36;;;;;;;16.98;13.02;;;;;;;10.52;100.00;101067.84;5009961;28;20031;-93
2023/04/19 05:52:10;;;;;;;19.33;13.50;;;;;;;10.61;100.00;101071.94;5000657;28;20109;-91
2023/04/19 05:54:49;;;;;;;18.88;12.43;;;;;;;10.36;100.00;101019.03;4997930;28;20050;-94
2023/04/19 05:57:32;;;;;;;16.48;12.25;;;;;;;10.76;100.00;101071.38;4997724;28;20042;-91
2023/04/19 06:00:18;;;;;;;17.30;12.35;;;;;;;10.88;100.00;101073.56;4981397;28;20055;-93
2023/04/19 06:06:06;;;;;;;14.23;11.90;;;;;;;10.97;100.00;101069.72;5046346;23;20166;-92
2023/04/19 06:08:55;;;;;;;17.23;11.40;;;;;;;11.08;100.00;101064.00;4983223;28;20031;-91
2023/04/19 06:11:26;;;;;;;16.05;12.15;;;;;;;11.08;100.00;101067.53;4992424;28;21017;-91
2023/04/19 06:14:13;;;;;;;13.68;10.85;;;;;;;10.85;100.00;101022.50;4988444;28;20078;-93
2023/04/19 06:16:43;;;;;;;14.32;11.38;;;;;;;10.66;100.00;100990.53;4983567;28;20299;-93
2023/04/19 06:19:26;;;;;;;15.40;11.68;;;;;;;11.20;100.00;101076.78;4965187;28;20046;-93
2023/04/19 06:21:53;;;;;;;15.77;10.23;;;;;;;10.81;100.00;100999.69;4981103;28;20179;-93
2023/04/19 06:24:32;;;;;;;17.85;10.52;;;;;;;11.14;100.00;101054.03;4979140;28;20055;-91
2023/04/19 06:27:02;;;;;;;15.95;11.05;;;;;;;11.29;100.00;101064.97;4982692;28;20070;-92
2023/04/19 06:29:30;;;;;;;14.90;10.13;;;;;;;11.30;100.00;101079.97;4995399;28;20041;-92
2023/04/19 06:32:22;;;;;;;15.82;10.68;;;;;;;11.21;100.00;101074.06;4992771;28;20079;-92
2023/04/19 06:35:04;;;;;;;13.57;10.32;;;;;;;11.13;100.00;101065.56;4992451;28;20034;-92
2023/04/19 06:37:35;;;;;;;13.73;9.93;;;;;;;10.93;100.00;101051.34;4971796;28;20153;-94
2023/04/19 06:40:14;;;;;;;13.98;10.27;;;;;;;10.60;100.00;100990.75;4961742;28;20050;-93
2023/04/19 06:42:55;;;;;;;14.13;9.32;;;;;;;10.91;100.00;101048.75;4963486;28;20039;-93
2023/04/19 06:45:22;;;;;;;18.48;9.52;;;;;;;11.12;100.00;101089.47;4968179;28;20049;-92
2023/04/19 06:48:14;;;;;;;13.85;9.63;;;;;;;10.82;100.00;101035.88;4955829;28;20528;-95
2023/04/19 06:50:51;;;;;;;12.57;8.75;;;;;;;11.10;100.00;101076.28;4961511;28;20103;-94
2023/04/19 06:53:40;;;;;;;12.98;9.43;;;;;;;10.90;100.00;101028.47;4971396;28;20055;-92
2023/04/19 06:56:47;;;;;;;11.73;8.55;;;;;;;10.67;100.00;101004.66;4962547;28;20417;-94
2023/04/19 06:59:55;;;;;;;9.63;7.20;;;;;;;10.96;100.00;101073.28;4965202;28;20153;-92
2023/04/19 07:02:23;;;;;;;10.95;7.85;;;;;;;10.70;100.00;101042.50;4979778;28;20061;-92
2023/04/19 07:04:52;;;;;;;11.13;7.20;;;;;;;10.89;100.00;101079.72;4979933;28;20062;-92
2023/04/19 07:07:23;;;;;;;9.25;7.03;;;;;;;10.78;100.00;101058.94;4973014;28;20475;-95
2023/04/19 07:10:05;;;;;;;9.85;6.53;;;;;;;10.80;100.00;101045.66;4955403;29;20059;-95
2023/04/19 07:12:45;;;;;;;9.18;6.75;;;;;;;10.97;100.00;101058.25;4952231;28;20048;-93
2023/04/19 07:15:17;;;;;;;8.30;6.53;;;;;;;10.99;100.00;101061.72;4940787;28;20047;-91
2023/04/19 07:17:46;;;;;;;10.68;6.57;;;;;;;10.93;100.00;101060.16;4969245;28;20067;-94
2023/04/19 07:20:35;;;;;;;8.82;6.80;;;;;;;10.96;100.00;101061.84;4954440;28;20106;-93
2023/04/19 07:23:04;;;;;;;7.50;6.00;;;;;;;10.51;100.00;100972.59;4957922;28;20066;-95
2023/04/19 07:25:38;;;;;;;7.60;5.50;;;;;;;10.73;100.00;100992.03;4963173;28;20049;-91
2023/04/19 07:28:17;;;;;;;7.53;5.63;;;;;;;10.97;100.00;101007.91;4929433;28;20111;-90
2023/04/19 07:30:56;;;;;;;8.73;5.45;;;;;;;11.29;100.00;101034.03;4978871;28;20050;-92
2023/04/19 07:33:29;;;;;;;8.32;5.95;;;;;;;11.07;100.00;100996.00;4977705;28;20039;-89
2023/04/19 07:36:05;;;;;;;8.55;5.38;;;;;;;10.89;97.25;100961.38;4984201;28;20035;-93
2023/04/19 07:49:32;;;;;;;6.18;4.65;;;;;;;11.71;89.34;100998.69;5676024;22;14104231;-93
2023/04/19 07:52:08;;;;;;;6.35;4.65;;;;;;;11.72;88.09;100996.00;6242672;23;20013;-95
2023/04/19 07:54:41;;;;;;;6.88;4.97;;;;;;;11.59;88.83;100957.66;6217897;23;20024;-89
2023/04/19 07:57:16;;;;;;;8.95;5.10;;;;;;;12.06;84.72;100998.09;6245295;23;20067;-92
2023/04/19 07:59:47;;;;;;;9.23;5.10;;;;;;;12.42;81.83;101008.91;6199454;23;20035;-94
2023/04/19 08:02:32;;;;;;;7.47;4.60;;;;;;;12.73;77.06;100989.75;6245109;23;20013;-92
2023/04/19 08:05:17;;;;;;;;;;;;;;;12.93;77.04;101029.53;6205540;23;20043;-91
2023/04/19 08:07:52;;;;;;;6.07;4.72;;;;;;;12.88;75.25;100994.38;6249274;23;19904;-92
2023/04/19 08:10:34;;;;;;;6.10;4.40;;;;;;;12.95;74.64;101006.41;6198918;22;20024;-92
2023/04/19 08:13:10;;;;;;;5.35;4.38;;;;;;;12.89;73.14;100990.78;6331423;22;20023;-91
2023/04/19 08:15:47;;;;;;;7.00;4.47;;;;;;;12.96;70.77;100973.59;6292661;22;20012;-93
2023/04/19 08:18:40;;;;;;;7.30;4.80;;;;;;;13.38;71.06;101022.19;6291273;22;20306;-93
2023/04/19 08:21:35;;;;;;;6.10;4.35;;;;;;;13.46;69.72;100996.03;6296012;22;20072;-92
2023/04/19 08:24:07;;;;;;;5.35;4.30;;;;;;;13.79;67.49;101017.44;6297444;22;20016;-94
2023/04/19 08:27:14;;;;;;;6.22;4.63;;;;;;;13.30;65.76;100969.34;6276426;22;20073;-92
2023/04/19 08:29:42;;;;;;;5.68;3.90;;;;;;;12.95;66.39;100971.84;6278320;22;20030;-91
2023/04/19 08:32:30;;;;;;;7.70;4.50;;;;;;;13.12;69.96;101034.00;6305936;22;20038;-92
2023/04/19 08:35:12;;;;;;;6.10;4.10;;;;;;;12.88;70.48;100943.00;6306249;22;20007;-91
2023/04/19 08:38:05;;;;;;;6.15;4.35;;;;;;;13.09;68.76;100973.84;6304684;22;20255;-92
2023/04/19 08:40:52;;;;;;;5.28;4.25;;;;;;;13.31;68.19;100977.25;6307721;22;20008;-91
2023/04/19 08:43:27;;;;;;;5.75;4.50;;;;;;;13.58;66.29;100995.44;6308509;22;20059;-92
2023/04/19 08:45:56;;;;;;;7.57;4.50;;;;;;;13.86;65.68;101026.84;6309548;22;20019;-91
2023/04/19 08:48:35;;;;;;;5.80;4.60;;;;;;;13.84;64.81;101026.09;6307498;22;20024;-92
2023/04/19 08:51:12;;;;;;;5.88;5.05;;;;;;;14.02;64.41;101020.66;6304139;22;20012;-93
2023/04/19 08:53:44;;;;;;;5.82;4.47;;;;;;;13.94;62.61;100960.75;6303164;22;20015;-93
2023/04/19 08:56:29;;;;;;;6.60;4.93;;;;;;;14.34;61.25;101015.47;6298406;22;20042;-93
2023/04/19 08:59:13;;;;;;;6.00;4.05;;;;;;;14.15;61.46;101012.91;6289573;22;20049;-93
2023/04/19 09:01:48;;;;;;;6.50;5.03;;;;;;;13.76;64.85;101006.97;6290236;22;20042;-93
2023/04/19 09:04:56;;;;;;;7.90;5.15;;;;;;;13.32;64.27;100951.50;6289487;22;20020;-92
2023/04/19 09:07:37;;;;;;;6.07;4.95;;;;;;;13.33;66.20;100980.69;6268585;22;20015;-93
2023/04/19 09:10:16;;;;;;;7.22;4.80;;;;;;;13.59;66.99;100995.34;6289874;22;20016;-93
2023/04/19 09:13:05;;;;;;;9.80;5.03;;;;;;;13.70;64.38;100947.75;6289033;22;20095;-93
2023/04/19 09:15:44;;;;;;;5.78;4.60;;;;;;;13.76;65.62;100980.34;6288477;22;20026;-93
2023/04/19 09:18:29;;;;;;;6.45;5.35;;;;;;;13.84;64.52;100962.19;6265313;22;20074;-92
2023/04/19 09:20:59;;;;;;;8.35;4.60;;;;;;;14.20;63.57;100986.88;6297456;22;20019;-92
2023/04/19 09:23:52;;;;;;;7.90;5.10;;;;;;;14.32;62.71;100996.88;6297716;22;20015;-91
2023/04/19 09:26:33;;;;;;;7.43;5.30;;;;;;;14.18;63.77;100983.44;6278871;22;20185;-91
2023/04/19 09:29:10;;;;;;;7.68;5.53;;;;;;;14.19;62.76;100987.81;6300638;22;20030;-92
2023/04/19 09:31:57;;;;;;;7.35;5.68;;;;;;;14.16;62.59;100971.16;6301570;22;20050;-92
2023/04/19 09:34:30;;;;;;;7.35;5.72;;;;;;;14.28;61.84;100979.38;6296667;22;20071;-92
2023/04/19 09:37:20;;;;;;;7.03;5.43;;;;;;;14.31;62.64;100973.88;6244894;22;20069;-93
2023/04/19 09:40:24;;;;;;;9.25;6.10;;;;;;;14.26;60.93;100978.59;6289554;22;20062;-91
2023/04/19 09:43:07;;;;;;;9.05;4.80;;;;;;;14.38;61.43;100969.94;6289405;22;20098;-94
2023/04/19 09:45:56;;;;;;;6.97;5.47;;;;;;;14.38;60.05;100956.59;6294199;22;20038;-93
2023/04/19 09:48:26;;;;;;;8.98;5.57;;;;;;;14.50;59.13;100975.56;6297076;22;20022;-93
2023/04/19 09:51:01;;;;;;;5.90;4.72;;;;;;;14.21;57.81;100966.44;6297472;22;20003;-92
2023/04/19 09:53:39;;;;;;;7.15;4.45;;;;;;;14.12;57.78;100956.28;6300266;22;20008;-92
2023/04/19 09:56:11;;;;;;;5.40;4.32;;;;;;;14.28;57.48;100965.19;6300353;22;20043;-92
2023/04/19 09:58:41;;;;;;;5.57;4.50;;;;;;;14.29;58.39;100970.44;6300087;22;20417;-91
2023/04/19 10:01:38;;;;;;;5.03;4.43;;;;;;;14.31;56.12;100967.69;6295416;22;20077;-91
2023/04/19 10:04:06;;;;;;;6.78;4.97;;;;;;;14.14;56.18;100971.25;6293973;22;20015;-93
2023/04/19 10:06:53;;;;;;;6.32;4.82;;;;;;;13.85;56.48;100918.66;6291026;22;20090;-93
2023/04/19 10:09:40;;;;;;;6.00;4.80;;;;;;;14.17;54.97;100968.41;6285089;22;20038;-94
2023/04/19 10:12:29;;;;;;;7.03;4.78;;;;;;;14.27;52.65;100972.31;6225224;23;20020;-92
2023/04/19 10:15:21;;;;;;;7.57;5.50;;;;;;;13.96;51.67;100918.94;6256805;23;20163;-92
2023/04/19 10:18:15;;;;;;;5.18;4.40;;;;;;;13.88;50.86;100903.34;6247111;23;20044;-92
2023/04/19 10:21:05;;;;;;;5.65;4.50;;;;;;;13.93;51.09;100904.00;6268178;22;20014;-91
2023/04/19 10:23:37;;;;;;;7.72;5.53;;;;;;;14.16;50.08;100913.44;6268886;22;20024;-93
2023/04/19 10:26:06;;;;;;;7.38;4.85;;;;;;;14.29;49.76;100941.13;6270083;22;20065;-92
2023/04/19 10:28:35;;;;;;;6.45;4.13;;;;;;;14.54;51.02;100951.34;6269695;22;20019;-92
2023/04/19 10:31:11;;;;;;;8.52;4.68;;;;;;;14.25;48.73;100866.78;6236594;23;20039;-93
2023/04/19 10:33:40;;;;;;;6.03;4.72;;;;;;;14.58;48.70;100957.38;6256186;23;20291;-93
2023/04/19 10:36:18;;;;;;;6.78;4.85;;;;;;;13.84;49.11;100863.69;6230286;23;20020;-92
2023/04/19 10:38:54;;;;;;;6.88;4.63;;;;;;;14.33;49.06;100952.47;6257475;22;20074;-93
2023/04/19 10:41:22;;;;;;;7.18;4.78;;;;;;;13.94;48.97;100907.50;6230146;23;20067;-93
2023/04/19 10:43:58;;;;;;;7.82;4.78;;;;;;;14.30;49.62;100944.66;6261121;23;20024;-92
2023/04/19 10:46:30;;;;;;;6.70;4.35;;;;;;;14.53;48.53;100935.44;6264835;23;20030;-93
2023/04/19 10:49:12;;;;;;;7.97;4.53;;;;;;;14.44;49.74;100893.31;6265033;23;20011;-91
2023/04/19 10:51:53;;;;;;;6.28;4.80;;;;;;;14.68;49.57;100892.81;6265353;22;20024;-90
2023/04/19 10:54:36;;;;;;;6.03;4.15;;;;;;;15.18;49.19;100931.75;6262981;23;20020;-90
2023/04/19 10:57:09;;;;;;;7.18;4.70;;;;;;;15.04;48.07;100911.19;6267836;23;20011;-92
2023/04/19 11:00:25;;;;;;;6.30;4.80;;;;;;;14.72;46.18;100917.47;6266039;22;20008;-92
2023/04/19 11:03:51;;;;;;;5.05;3.78;;;;;;;14.29;45.80;100866.53;6257338;23;20405;-92
2023/04/19 11:06:21;;;;;;;7.72;3.88;;;;;;;14.55;45.33;100915.75;6259426;23;20023;-91
2023/04/19 11:09:09;;;;;;;8.05;3.85;;;;;;;14.45;44.69;100919.00;6261095;22;20004;-89
2023/04/19 11:12:01;;;;;;;6.47;3.70;;;;;;;14.55;44.35;100907.75;6264021;22;20016;-92
2023/04/19 11:14:33;;;;;;;4.15;3.03;;;;;;;14.50;44.45;100914.28;6254554;22;20030;-95
2023/04/19 11:17:37;;;;;;;3.70;3.30;;;;;;;13.96;42.15;100813.31;6252337;23;20058;-94
2023/04/19 11:20:08;;;;;;;6.55;2.75;;;;;;;14.17;41.93;100848.53;6252490;23;20016;-93
2023/04/19 11:22:50;;;;;;;8.05;3.35;;;;;;;14.65;42.00;100900.09;6258669;23;20027;-93
2023/04/19 11:25:32;;;;;;;5.18;3.25;;;;;;;14.89;41.62;100889.88;6230837;23;20023;-92
2023/04/19 11:28:01;;;;;;;3.95;2.88;;;;;;;15.08;40.73;100886.06;6254562;22;20039;-91
2023/04/19 11:30:34;;;;;;;4.10;2.77;;;;;;;14.59;40.53;100804.50;6261729;23;20091;-91
2023/04/19 11:33:02;;;;;;;4.40;2.90;;;;;;;14.62;40.81;100812.34;6264513;22;20023;-92
2023/04/19 11:35:36;;;;;;;4.65;2.80;;;;;;;15.04;40.54;100889.84;6232325;23;20020;-92
2023/04/19 11:38:12;;;;;;;6.40;2.60;;;;;;;14.76;39.82;100865.72;6254319;23;20091;-94
2023/04/19 11:41:02;;;;;;;5.70;2.25;;;;;;;14.35;39.26;100828.03;6254999;22;20040;-92
2023/04/19 11:43:55;;;;;;;4.60;2.30;;;;;;;14.25;40.24;100771.75;6217726;23;20031;-93
2023/04/19 11:46:23;;;;;;;3.25;2.58;;;;;;;14.96;39.39;100828.09;6255364;22;20078;-90
2023/04/19 11:48:55;;;;;;;2.80;2.50;;;;;;;15.34;38.92;100873.00;6251580;23;20020;-92
2023/04/19 11:51:22;;;;;;;4.53;1.77;;;;;;;15.13;38.70;100827.09;6252018;23;20016;-92
2023/04/19 11:53:53;;;;;;;4.75;2.20;;;;;;;15.20;37.10;100812.47;6254500;23;20095;-93
2023/04/19 11:56:25;;;;;;;4.45;2.10;;;;;;;15.51;37.79;100859.53;6256985;23;20027;-92
2023/04/19 11:58:57;;;;;;;3.10;2.30;;;;;;;15.02;36.43;100803.72;6256231;23;20026;-92
2023/04/19 12:01:34;;;;;;;4.43;2.17;;;;;;;15.02;36.75;100838.41;6256957;23;20437;-91
2023/04/19 12:04:10;;;;;;;3.15;2.25;;;;;;;15.03;37.19;100845.47;6253708;22;20016;-92
2023/04/19 12:06:37;;;;;;;;;;;;;;;15.11;36.62;100844.16;6253814;23;20043;-93
2023/04/19 12:09:45;;;;;;;2.85;2.00;;;;;;;14.95;36.88;100815.69;6258309;22;20239;-91
2023/04/19 12:12:33;;;;;;;3.22;2.13;;;;;;;14.93;36.51;100780.28;6255892;22;20015;-90
2023/04/19 12:15:20;;;;;;;3.00;2.10;;;;;;;15.04;36.79;100787.66;6265463;23;20028;-91
2023/04/19 12:17:56;;;;;;;2.72;1.65;;;;;;;15.36;35.28;100823.06;6263857;23;20016;-90
2023/04/19 12:20:35;;;;;;;3.63;2.00;;;;;;;15.53;35.69;100835.41;6265484;23;20050;-90